Terminal Aerodrome Forecast
Issued by NWS Nashville, TN

Home | Current Version | Previous Version | Text Only | Print | Product List | Glossary On
Versions: 1 2 3 4 5 6 7 8 9 10 11 12 13 14
050
FTUS44 KOHX 040228 AAA
TAFCSV
TAF AMD
KCSV 040228Z 0402/0424 04003KT P6SM -RA OVC060
     FM040800 11003KT 5SM -RA OVC015
     FM041100 13004KT 4SM -RA BR OVC007
     FM041800 14006KT 2SM -RA BR OVC003=

USA.gov is the U.S. government's official web portal to all federal, state and local government web resources and services.